Time;durP1;ratioP1;P1;durP2;ratioP2;P2;SDS_P1;SDS_P2;PMS_P1;PMS_P2;Temp;Humidity;BMP_temperature;BMP_pressure;BME280_temperature;BME280_humidity;BME280_pressure;Samples;Min_cycle;Max_cycle;Signal;HPM_P1;HPM_P2
2021/05/31 00:00:38;;;;;;;;;;;;;;;8.17;55.91;101805.46;1716596;82;20211;-76
2021/05/31 00:03:07;;;;;;;;;;;;;;;8.17;55.93;101799.89;1719608;82;20198;-76
2021/05/31 00:05:33;;;;;;;;;;;;;;;8.13;55.97;101798.53;1710661;81;20189;-76
2021/05/31 00:08:00;;;;;;;;;;;;;;;8.10;56.04;101789.05;1725468;82;20182;-76
2021/05/31 00:10:26;;;;;;;;;;;;;;;8.07;56.07;101790.73;1725706;82;20203;-76
2021/05/31 00:12:53;;;;;;;;;;;;;;;7.99;56.06;101794.48;1718259;81;20529;-76
2021/05/31 00:15:19;;;;;;;;;;;;;;;7.91;56.18;101787.95;1727242;82;20194;-76
2021/05/31 00:17:45;;;;;;;;;;;;;;;7.90;56.17;101791.36;1725503;82;20186;-76
2021/05/31 00:20:12;;;;;;;;;;;;;;;7.87;56.16;101791.74;1723274;82;20152;-76
2021/05/31 00:22:38;;;;;;;;;;;;;;;7.83;56.25;101788.67;1725482;81;20198;-76
2021/05/31 00:25:06;;;;;;;;;;;;;;;7.79;56.26;101793.37;1710685;82;20193;-76
2021/05/31 00:27:33;;;;;;;;;;;;;;;7.71;56.35;101793.27;1732416;82;20159;-76
2021/05/31 00:29:59;;;;;;;;;;;;;;;7.66;56.42;101793.62;1726900;82;20214;-76
2021/05/31 00:32:25;;;;;;;;;;;;;;;7.61;56.44;101788.82;1707632;82;20188;-76
2021/05/31 00:34:51;;;;;;;;;;;;;;;7.50;56.58;101792.94;1727624;82;20194;-76
2021/05/31 00:37:17;;;;;;;;;;;;;;;7.47;56.67;101795.46;1730169;82;20141;-76
2021/05/31 00:39:43;;;;;;;;;;;;;;;7.39;56.66;101790.61;1729848;81;20214;-76
2021/05/31 00:42:09;;;;;;;;;;;;;;;7.32;56.73;101793.51;1718869;82;20256;-76
2021/05/31 00:44:35;;;;;;;;;;;;;;;7.28;56.66;101786.58;1723395;82;20214;-76
2021/05/31 00:47:01;;;;;;;;;;;;;;;7.21;56.71;101789.50;1730540;82;20185;-76
2021/05/31 00:49:35;;;;;;;;;;;;;;;7.19;56.74;101783.47;1713965;81;20185;-76
2021/05/31 00:51:55;;;;;;;;;;;;;;;7.15;56.81;101784.25;1726744;82;20211;-76
2021/05/31 00:54:23;;;;;;;;;;;;;;;7.09;56.85;101776.44;1733305;82;20210;-76
2021/05/31 00:56:49;;;;;;;;;;;;;;;7.07;56.89;101778.11;1728281;82;20198;-76
2021/05/31 00:59:15;;;;;;;;;;;;;;;7.05;57.03;101781.50;1715397;81;20202;-76
2021/05/31 01:01:41;;;;;;;;;;;;;;;7.03;57.06;101787.03;1725818;82;20198;-76
2021/05/31 01:04:09;;;;;;;;;;;;;;;7.00;57.10;101783.13;1726729;82;20195;-76
2021/05/31 01:06:40;;;;;;;;;;;;;;;6.99;57.23;101784.83;1729236;81;20158;-76
2021/05/31 01:09:12;;;;;;;;;;;;;;;6.94;57.21;101782.59;1720691;82;20210;-76
2021/05/31 01:11:53;;;;;;;;;;;;;;;6.90;57.25;101782.09;1731510;82;20186;-76
2021/05/31 01:14:25;;;;;;;;;;;;;;;6.88;57.27;101782.48;1721660;81;20203;-76
2021/05/31 01:16:57;;;;;;;;;;;;;;;6.84;57.32;101780.28;1731503;82;20145;-76
2021/05/31 01:19:53;;;;;;;;;;;;;;;6.84;57.36;101785.42;1723393;82;20142;-77
2021/05/31 01:22:24;;;;;;;;;;;;;;;6.82;57.34;101782.37;1718097;82;20220;-77
2021/05/31 01:25:00;;;;;;;;;;;;;;;6.79;57.32;101774.61;1702031;83;20219;-76
2021/05/31 01:28:07;;;;;;;;;;;;;;;6.76;57.33;101775.87;1721281;82;20206;-76
2021/05/31 01:30:33;;;;;;;;;;;;;;;6.67;57.36;101771.42;1730612;82;20178;-76
2021/05/31 01:33:01;;;;;;;;;;;;;;;6.60;57.39;101769.16;1724559;82;20146;-77
2021/05/31 01:35:30;;;;;;;;;;;;;;;6.56;57.33;101779.35;1721847;82;20190;-77
2021/05/31 01:37:57;;;;;;;;;;;;;;;6.49;57.39;101769.80;1727042;81;20194;-77
2021/05/31 01:40:24;;;;;;;;;;;;;;;6.42;57.41;101764.95;1720923;82;20221;-77
2021/05/31 01:43:04;;;;;;;;;;;;;;;6.38;57.52;101766.15;1726767;82;20170;-77
2021/05/31 01:45:28;;;;;;;;;;;;;;;6.34;57.56;101762.66;1718209;82;20151;-77
2021/05/31 01:47:54;;;;;;;;;;;;;;;6.29;57.63;101757.42;1725599;81;20182;-77
2021/05/31 01:50:20;;;;;;;;;;;;;;;6.18;57.68;101760.23;1727921;82;20170;-76
2021/05/31 01:52:53;;;;;;;;;;;;;;;6.12;57.76;101760.52;1715236;81;20219;-76
2021/05/31 01:55:19;;;;;;;;;;;;;;;6.12;57.95;101756.67;1720321;82;20185;-76
2021/05/31 01:57:47;;;;;;;;;;;;;;;6.12;57.99;101757.95;1730232;82;20190;-76
2021/05/31 02:00:15;;;;;;;;;;;;;;;6.12;57.96;101762.67;1706833;82;20190;-76
2021/05/31 02:02:41;;;;;;;;;;;;;;;6.11;57.93;101757.50;1728260;82;20187;-76
2021/05/31 02:05:09;;;;;;;;;;;;;;;6.10;58.06;101759.20;1722217;81;20181;-76
2021/05/31 02:07:38;;;;;;;;;;;;;;;6.09;58.03;101756.60;1716345;82;20197;-76
2021/05/31 02:10:07;;;;;;;;;;;;;;;5.99;57.83;101756.83;1728054;81;20210;-76
2021/05/31 02:12:45;;;;;;;;;;;;;;;5.88;58.12;101760.41;1711327;82;20145;-76
2021/05/31 02:15:14;;;;;;;;;;;;;;;5.88;58.19;101761.70;1724975;82;20214;-76
2021/05/31 02:18:06;;;;;;;;;;;;;;;5.83;58.15;101759.45;1728286;82;20194;-76
2021/05/31 02:20:35;;;;;;;;;;;;;;;5.84;58.18;101759.03;1732515;82;20222;-76
2021/05/31 02:23:03;;;;;;;;;;;;;;;5.79;58.18;101759.34;1709123;82;20196;-77
2021/05/31 02:25:30;;;;;;;;;;;;;;;5.78;58.27;101753.34;1706372;83;20182;-76
2021/05/31 02:27:58;;;;;;;;;;;;;;;5.78;58.29;101746.06;1726386;82;20222;-76
2021/05/31 02:30:24;;;;;;;;;;;;;;;5.76;58.39;101748.59;1716113;82;20206;-76
2021/05/31 02:33:05;;;;;;;;;;;;;;;5.77;58.37;101748.18;1720692;82;20190;-76
2021/05/31 02:35:37;;;;;;;;;;;;;;;5.75;58.32;101744.72;1710797;82;20146;-77
2021/05/31 02:38:05;;;;;;;;;;;;;;;5.64;58.33;101741.53;1729392;82;20198;-76
2021/05/31 02:40:32;;;;;;;;;;;;;;;5.62;58.41;101731.65;1722240;82;20146;-76
2021/05/31 02:43:00;;;;;;;;;;;;;;;5.60;58.44;101737.16;1725759;82;20195;-76
2021/05/31 02:45:27;;;;;;;;;;;;;;;5.59;58.46;101734.56;1729507;82;20202;-76
2021/05/31 02:47:54;;;;;;;;;;;;;;;5.57;58.53;101739.66;1715917;81;20203;-76
2021/05/31 02:50:21;;;;;;;;;;;;;;;5.54;58.49;101745.13;1728237;82;20182;-76
2021/05/31 02:52:48;;;;;;;;;;;;;;;5.51;58.67;101740.80;1731628;82;20214;-77
2021/05/31 02:55:17;;;;;;;;;;;;;;;5.51;58.72;101747.22;1714075;81;20238;-77
2021/05/31 02:57:43;;;;;;;;;;;;;;;5.49;58.75;101748.87;1727351;82;20166;-77
2021/05/31 03:00:12;;;;;;;;;;;;;;;5.48;58.79;101751.41;1731511;82;20178;-77
2021/05/31 03:02:38;;;;;;;;;;;;;;;5.46;58.78;101751.38;1709876;82;20182;-77
2021/05/31 03:05:15;;;;;;;;;;;;;;;5.48;58.80;101753.55;1726486;82;20206;-77
2021/05/31 03:07:41;;;;;;;;;;;;;;;5.49;58.80;101745.03;1730341;82;20190;-77
2021/05/31 03:10:08;;;;;;;;;;;;;;;5.49;58.82;101749.30;1727597;82;20207;-77
2021/05/31 03:12:35;;;;;;;;;;;;;;;5.44;58.78;101749.19;1732788;81;20221;-77
2021/05/31 03:15:01;;;;;;;;;;;;;;;5.43;58.96;101752.58;1725266;81;20553;-77
2021/05/31 03:17:27;;;;;;;;;;;;;;;5.46;58.99;101760.77;1728244;82;20486;-77
2021/05/31 03:19:53;;;;;;;;;;;;;;;5.42;58.98;101757.27;1735187;82;20208;-77
2021/05/31 03:22:23;;;;;;;;;;;;;;;5.38;59.01;101761.87;1707841;82;20249;-77
2021/05/31 03:24:49;;;;;;;;;;;;;;;5.31;59.06;101757.01;1718908;82;20308;-77
2021/05/31 03:27:15;;;;;;;;;;;;;;;5.36;59.25;101751.98;1724886;82;20201;-77
2021/05/31 03:29:41;;;;;;;;;;;;;;;5.42;59.28;101755.11;1723251;82;20294;-77
2021/05/31 03:32:07;;;;;;;;;;;;;;;5.44;59.27;101751.75;1727775;82;20222;-77
2021/05/31 03:34:34;;;;;;;;;;;;;;;5.49;59.37;101749.30;1726428;82;20269;-77
2021/05/31 03:37:00;;;;;;;;;;;;;;;5.52;59.28;101750.23;1724587;82;20286;-77
2021/05/31 03:39:26;;;;;;;;;;;;;;;5.54;59.37;101754.11;1711706;82;20274;-76
2021/05/31 03:41:52;;;;;;;;;;;;;;;5.57;59.45;101750.34;1712783;82;20233;-76
2021/05/31 03:44:18;;;;;;;;;;;;;;;5.58;59.46;101750.78;1730713;82;20229;-77
2021/05/31 03:46:44;;;;;;;;;;;;;;;5.54;59.46;101751.13;1728316;82;20191;-77
2021/05/31 03:49:11;;;;;;;;;;;;;;;5.61;59.72;101749.57;1724961;82;20198;-76
2021/05/31 03:51:37;;;;;;;;;;;;;;;5.71;59.81;101750.64;1724610;82;20182;-76
2021/05/31 03:54:03;;;;;;;;;;;;;;;5.74;59.74;101749.40;1715362;81;20222;-76
2021/05/31 03:56:29;;;;;;;;;;;;;;;5.79;59.86;101751.65;1724868;81;20556;-76
2021/05/31 03:58:55;;;;;;;;;;;;;;;5.85;59.93;101757.78;1721237;82;20285;-76
2021/05/31 04:01:25;;;;;;;;;;;;;;;5.92;59.97;101752.40;1723813;82;20160;-77
2021/05/31 04:03:52;;;;;;;;;;;;;;;6.09;60.17;101758.75;1724008;81;20189;-77
2021/05/31 04:11:38;;;;;;;;;;;;;;;6.96;60.13;101753.92;1728844;81;20215;-77
2021/05/31 04:14:12;;;;;;;;;;;;;;;7.15;60.19;101761.11;1721952;81;20298;-77
2021/05/31 04:16:40;;;;;;;;;;;;;;;7.21;59.89;101747.06;1723664;81;20285;-76
2021/05/31 04:19:20;;;;;;;;;;;;;;;7.21;60.13;101747.06;1721492;82;20281;-77
2021/05/31 04:21:49;;;;;;;;;;;;;;;7.35;60.29;101749.81;1713609;81;20281;-76
2021/05/31 04:24:16;;;;;;;;;;;;;;;7.45;60.34;101746.97;1714534;82;20209;-77
2021/05/31 04:26:43;;;;;;;;;;;;;;;7.57;60.39;101748.44;1720927;81;20267;-76
2021/05/31 04:29:12;;;;;;;;;;;;;;;7.66;60.38;101750.27;1723999;82;20182;-76
2021/05/31 04:31:45;;;;;;;;;;;;;;;7.74;60.39;101748.67;1714956;81;20172;-77
2021/05/31 04:34:12;;;;;;;;;;;;;;;7.84;60.49;101751.78;1719793;82;20136;-77
2021/05/31 04:36:40;;;;;;;;;;;;;;;7.94;60.56;101749.78;1721049;82;20190;-77
2021/05/31 04:39:07;;;;;;;;;;;;;;;8.04;60.52;101748.19;1719081;82;20187;-77
2021/05/31 04:41:34;;;;;;;;;;;;;;;8.11;60.63;101743.13;1719664;82;20170;-77
2021/05/31 04:44:00;;;;;;;;;;;;;;;8.24;60.67;101742.86;1723636;82;20198;-77
2021/05/31 04:46:38;;;;;;;;;;;;;;;8.36;60.68;101750.73;1723429;82;20206;-77
2021/05/31 04:49:04;;;;;;;;;;;;;;;8.47;60.66;101746.55;1725500;81;20218;-77
2021/05/31 04:51:31;;;;;;;;;;;;;;;8.58;60.69;101744.96;1720405;82;20164;-77
2021/05/31 04:53:57;;;;;;;;;;;;;;;8.69;60.70;101744.20;1714297;82;20190;-77
2021/05/31 04:56:24;;;;;;;;;;;;;;;8.83;60.78;101740.05;1724689;82;20222;-77
2021/05/31 04:58:50;;;;;;;;;;;;;;;9.08;60.92;101740.67;1723239;82;20198;-77
2021/05/31 05:01:16;;;;;;;;;;;;;;;9.54;61.26;101740.55;1718883;82;20186;-77
2021/05/31 05:03:43;;;;;;;;;;;;;;;10.23;61.52;101748.23;1716434;82;20174;-77
2021/05/31 05:06:09;;;;;;;;;;;;;;;11.00;61.27;101750.91;1725450;81;20198;-77
2021/05/31 05:08:36;;;;;;;;;;;;;;;11.75;60.91;101749.09;1718461;82;20203;-77
2021/05/31 05:11:02;;;;;;;;;;;;;;;12.47;60.82;101749.23;1730421;82;20210;-77
2021/05/31 05:13:28;;;;;;;;;;;;;;;13.30;60.65;101740.82;1721946;82;20172;-76
2021/05/31 05:15:54;;;;;;;;;;;;;;;14.09;60.17;101746.41;1725589;82;21053;-76
2021/05/31 05:18:20;;;;;;;;;;;;;;;14.77;59.90;101744.62;1710756;81;20803;-75
2021/05/31 05:20:46;;;;;;;;;;;;;;;15.35;59.72;101742.34;1718025;81;20237;-75
2021/05/31 05:23:12;;;;;;;;;;;;;;;15.84;59.31;101745.76;1719745;81;20162;-75
2021/05/31 05:25:38;;;;;;;;;;;;;;;16.40;59.12;101734.56;1719677;82;20173;-75
2021/05/31 05:28:04;;;;;;;;;;;;;;;16.87;58.46;101735.22;1715366;81;20257;-75
2021/05/31 05:30:32;;;;;;;;;;;;;;;17.26;58.62;101729.88;1715709;82;20162;-75
2021/05/31 05:33:01;;;;;;;;;;;;;;;17.60;58.24;101739.86;1706536;82;20308;-75
2021/05/31 05:35:35;;;;;;;;;;;;;;;17.64;58.08;101731.48;1711254;82;20506;-75
2021/05/31 05:43:44;;;;;;;;;;;;;;;19.02;57.50;101734.25;1717815;82;20283;-75
2021/05/31 05:48:50;;;;;;;;;;;;;;;19.72;57.32;101744.48;1709057;82;20559;-74
2021/05/31 05:51:16;;;;;;;;;;;;;;;20.15;57.19;101733.69;1712611;81;53657;-74
2021/05/31 05:53:43;;;;;;;;;;;;;;;20.42;56.70;101744.45;1716337;81;20209;-75
2021/05/31 05:56:11;;;;;;;;;;;;;;;20.76;57.07;101742.67;1725609;82;20353;-75
2021/05/31 05:58:38;;;;;;;;;;;;;;;21.25;56.91;101739.80;1732210;82;20158;-75
2021/05/31 06:01:05;;;;;;;;;;;;;;;21.75;56.67;101741.05;1723217;81;20216;-75
2021/05/31 06:03:31;;;;;;;;;;;;;;;22.08;56.39;101743.09;1721647;82;20175;-75
2021/05/31 06:06:00;;;;;;;;;;;;;;;22.43;56.22;101742.73;1710288;82;20192;-75
2021/05/31 06:08:26;;;;;;;;;;;;;;;22.66;56.11;101737.69;1727199;82;20241;-75
2021/05/31 06:10:52;;;;;;;;;;;;;;;23.00;56.04;101728.97;1710176;81;20272;-75
2021/05/31 06:13:18;;;;;;;;;;;;;;;23.37;55.86;101733.24;1719361;82;20279;-75
2021/05/31 06:15:45;;;;;;;;;;;;;;;23.60;55.59;101734.69;1712715;82;20919;-75
2021/05/31 06:18:11;;;;;;;;;;;;;;;23.59;55.14;101735.16;1716506;82;20321;-75
2021/05/31 06:20:37;;;;;;;;;;;;;;;23.66;55.49;101730.41;1702532;82;20265;-75
2021/05/31 06:23:04;;;;;;;;;;;;;;;23.94;55.40;101720.51;1719374;82;20198;-75
2021/05/31 06:25:38;;;;;;;;;;;;;;;24.24;55.07;101724.59;1720830;81;20306;-75
2021/05/31 06:28:05;;;;;;;;;;;;;;;24.31;54.84;101725.52;1721874;82;20773;-75
2021/05/31 06:30:31;;;;;;;;;;;;;;;24.44;54.62;101728.30;1727180;82;20296;-75
2021/05/31 06:32:58;;;;;;;;;;;;;;;24.54;54.32;101731.28;1719735;82;20305;-75
2021/05/31 06:35:25;;;;;;;;;;;;;;;24.43;54.23;101727.95;1724891;82;20202;-75
2021/05/31 06:37:52;;;;;;;;;;;;;;;24.12;53.67;101727.44;1731131;82;20597;-75
2021/05/31 06:40:18;;;;;;;;;;;;;;;24.05;53.77;101732.67;1703543;82;20158;-75
2021/05/31 06:42:46;;;;;;;;;;;;;;;24.13;53.53;101733.11;1719346;82;479548;-75
2021/05/31 06:45:23;;;;;;;;;;;;;;;24.09;53.29;101733.74;1714876;83;20163;-75
2021/05/31 06:47:46;;;;;;;;;;;;;;;24.15;53.17;101733.02;1718259;83;20175;-75
2021/05/31 06:50:13;;;;;;;;;;;;;;;24.30;53.00;101730.89;1720528;82;20233;-75
2021/05/31 06:52:39;;;;;;;;;;;;;;;24.38;52.84;101730.00;1714156;82;20169;-75
2021/05/31 06:55:07;;;;;;;;;;;;;;;24.43;52.66;101733.70;1724263;82;20225;-75
2021/05/31 06:57:34;;;;;;;;;;;;;;;24.42;52.40;101736.81;1720306;81;20147;-75
2021/05/31 07:00:00;;;;;;;;;;;;;;;24.47;52.45;101735.20;1713059;83;20165;-75
2021/05/31 07:02:27;;;;;;;;;;;;;;;24.69;52.26;101730.41;1720612;81;20188;-75
2021/05/31 07:04:53;;;;;;;;;;;;;;;24.71;51.70;101734.67;1720944;82;20471;-75
2021/05/31 07:07:20;;;;;;;;;;;;;;;24.78;51.94;101726.38;1723396;81;20199;-75
2021/05/31 07:09:58;;;;;;;;;;;;;;;24.76;51.63;101727.80;1724163;81;20187;-75
2021/05/31 07:12:24;;;;;;;;;;;;;;;24.80;51.50;101727.14;1721583;81;20163;-75
2021/05/31 07:14:51;;;;;;;;;;;;;;;24.83;51.32;101721.68;1729442;81;20171;-75
2021/05/31 07:17:23;;;;;;;;;;;;;;;24.96;51.50;101720.88;1718923;83;20250;-75
2021/05/31 07:19:49;;;;;;;;;;;;;;;25.13;51.11;101731.80;1717629;83;20789;-75
2021/05/31 07:22:16;;;;;;;;;;;;;;;24.98;50.91;101728.25;1703546;81;20261;-75
2021/05/31 07:24:43;;;;;;;;;;;;;;;24.87;51.79;101721.41;1719783;81;20179;-75
2021/05/31 07:27:10;;;;;;;;;;;;;;;24.09;51.10;101719.67;1719551;83;20267;-75
2021/05/31 07:29:37;;;;;;;;;;;;;;;24.25;51.66;101714.40;1716711;83;20303;-75
2021/05/31 07:32:06;;;;;;;;;;;;;;;24.64;51.43;101716.59;1718568;82;20268;-75
2021/05/31 07:34:32;;;;;;;;;;;;;;;24.81;51.41;101711.66;1725938;81;20505;-75
2021/05/31 07:36:58;;;;;;;;;;;;;;;25.06;51.00;101711.45;1717865;81;20530;-75
2021/05/31 07:39:26;;;;;;;;;;;;;;;25.39;50.86;101708.59;1703732;81;20262;-75
2021/05/31 07:41:52;;;;;;;;;;;;;;;25.69;50.42;101720.91;1729478;81;20274;-75
2021/05/31 07:44:18;;;;;;;;;;;;;;;25.77;49.99;101719.11;1720932;81;20804;-75
2021/05/31 07:46:46;;;;;;;;;;;;;;;25.79;49.91;101710.59;1713704;83;20316;-75
2021/05/31 07:49:12;;;;;;;;;;;;;;;25.94;49.39;101708.31;1705101;81;20183;-75
2021/05/31 07:51:43;;;;;;;;;;;;;;;25.98;49.32;101711.14;1716111;81;20170;-75
2021/05/31 07:54:06;;;;;;;;;;;;;;;25.96;48.83;101707.73;1716463;81;20254;-75
2021/05/31 07:56:32;;;;;;;;;;;;;;;25.58;48.42;101703.47;1725606;81;20611;-75
2021/05/31 07:58:59;;;;;;;;;;;;;;;25.32;48.79;101703.75;1710381;83;20284;-75
2021/05/31 08:01:25;;;;;;;;;;;;;;;25.20;48.69;101705.34;1713713;83;20305;-75
2021/05/31 08:03:52;;;;;;;;;;;;;;;25.15;48.39;101699.47;1708915;83;20261;-75
2021/05/31 08:06:21;;;;;;;;;;;;;;;24.87;48.33;101708.18;1712809;83;20283;-75
2021/05/31 08:08:47;;;;;;;;;;;;;;;24.65;48.18;101709.89;1720570;83;20266;-75
2021/05/31 08:11:13;;;;;;;;;;;;;;;24.52;47.83;101703.59;1719104;82;20234;-75
2021/05/31 08:13:39;;;;;;;;;;;;;;;24.43;48.08;101703.64;1712652;81;20254;-75
2021/05/31 08:16:08;;;;;;;;;;;;;;;24.51;47.67;101705.00;1721844;81;20262;-75
2021/05/31 08:18:34;;;;;;;;;;;;;;;24.49;47.71;101705.56;1720027;82;20270;-75
2021/05/31 08:21:00;;;;;;;;;;;;;;;24.28;47.43;101699.25;1721647;81;20307;-75
2021/05/31 08:23:27;;;;;;;;;;;;;;;24.24;47.30;101700.80;1709438;81;20279;-75
2021/05/31 08:25:53;;;;;;;;;;;;;;;24.25;47.24;101692.81;1723848;81;20247;-75
2021/05/31 08:28:19;;;;;;;;;;;;;;;24.15;47.08;101696.88;1718987;83;20201;-75
2021/05/31 08:30:45;;;;;;;;;;;;;;;23.95;46.71;101695.80;1720953;82;20275;-75
2021/05/31 08:33:17;;;;;;;;;;;;;;;23.72;46.92;101692.64;1719616;83;20252;-75
2021/05/31 08:35:44;;;;;;;;;;;;;;;23.67;46.77;101692.50;1720446;83;20281;-75
2021/05/31 08:38:10;;;;;;;;;;;;;;;23.45;46.62;101687.47;1718060;83;20205;-75
2021/05/31 08:40:37;;;;;;;;;;;;;;;23.27;46.68;101701.66;1714449;81;20481;-75
2021/05/31 08:43:03;;;;;;;;;;;;;;;23.28;46.49;101704.22;1722948;81;20510;-75
2021/05/31 08:45:31;;;;;;;;;;;;;;;23.28;46.35;101700.25;1715520;83;20149;-75
2021/05/31 08:47:58;;;;;;;;;;;;;;;23.16;46.28;101701.34;1710508;82;20191;-75
2021/05/31 08:50:27;;;;;;;;;;;;;;;23.02;45.95;101697.63;1721119;83;20161;-75
2021/05/31 08:52:54;;;;;;;;;;;;;;;23.12;45.91;101692.73;1719394;81;20169;-75
2021/05/31 08:55:22;;;;;;;;;;;;;;;23.54;45.81;101695.41;1731530;82;20169;-75
2021/05/31 08:57:49;;;;;;;;;;;;;;;24.22;45.98;101690.31;1725937;81;20605;-75
2021/05/31 09:00:18;;;;;;;;;;;;;;;24.97;45.75;101695.27;1732695;82;20189;-75
2021/05/31 09:02:44;;;;;;;;;;;;;;;25.71;45.59;101685.42;1719254;82;20788;-75
2021/05/31 09:05:11;;;;;;;;;;;;;;;26.27;45.48;101684.92;1722560;82;20231;-75
2021/05/31 09:07:37;;;;;;;;;;;;;;;26.19;45.50;101694.31;1704442;82;20177;-75
2021/05/31 09:10:06;;;;;;;;;;;;;;;26.01;45.21;101693.69;1698885;82;20735;-75
2021/05/31 09:12:36;;;;;;;;;;;;;;;25.87;44.95;101692.41;1718852;82;20191;-75
2021/05/31 09:15:10;;;;;;;;;;;;;;;25.60;45.00;101684.35;1721329;82;20214;-75
2021/05/31 09:17:37;;;;;;;;;;;;;;;25.54;44.60;101676.78;1719135;83;20187;-75
2021/05/31 09:20:05;;;;;;;;;;;;;;;25.16;44.67;101672.53;1723184;82;20151;-75
2021/05/31 09:22:31;;;;;;;;;;;;;;;24.90;44.88;101684.66;1715216;83;20621;-75
2021/05/31 09:25:00;;;;;;;;;;;;;;;24.69;45.01;101674.39;1722243;82;20205;-75
2021/05/31 09:27:27;;;;;;;;;;;;;;;24.08;44.54;101668.61;1681534;82;20500;-75
2021/05/31 09:29:58;;;;;;;;;;;;;;;23.62;45.00;101667.66;1721099;82;20163;-75
2021/05/31 09:32:25;;;;;;;;;;;;;;;23.21;44.46;101672.47;1718318;82;20531;-75
2021/05/31 09:34:59;;;;;;;;;;;;;;;22.78;44.03;101678.64;1735928;82;20586;-75
2021/05/31 09:37:25;;;;;;;;;;;;;;;22.37;43.80;101669.23;1707952;83;20183;-75
2021/05/31 09:40:00;;;;;;;;;;;;;;;22.06;43.67;101676.45;1724471;82;20171;-75
2021/05/31 09:42:26;;;;;;;;;;;;;;;21.77;43.58;101665.95;1722942;82;20370;-75
2021/05/31 09:45:06;;;;;;;;;;;;;;;21.43;43.33;101663.98;1731508;81;20169;-75
2021/05/31 09:47:35;;;;;;;;;;;;;;;21.25;43.43;101661.72;1719631;81;20184;-75
2021/05/31 09:50:03;;;;;;;;;;;;;;;21.06;43.44;101662.94;1716006;82;20184;-75
2021/05/31 09:52:29;;;;;;;;;;;;;;;20.96;43.20;101659.00;1718131;82;20151;-74
2021/05/31 09:54:55;;;;;;;;;;;;;;;20.91;43.08;101644.33;1716886;82;20239;-74
2021/05/31 09:57:24;;;;;;;;;;;;;;;20.84;42.83;101650.31;1652395;81;5000567;-74
2021/05/31 10:00:14;;;;;;;;;;;;;;;20.69;42.58;101649.20;1726757;81;20159;-74
2021/05/31 10:02:59;;;;;;;;;;;;;;;20.57;42.61;101654.11;1724683;82;20144;-74
2021/05/31 10:05:38;;;;;;;;;;;;;;;20.45;42.69;101644.95;1708072;82;20179;-74
2021/05/31 10:10:46;;;;;;;;;;;;;;;20.20;42.59;101647.70;1717977;83;20184;-74
2021/05/31 10:13:12;;;;;;;;;;;;;;;20.10;42.33;101644.58;1719459;83;20157;-74
2021/05/31 10:15:40;;;;;;;;;;;;;;;20.02;42.55;101653.21;1702092;82;20181;-74
2021/05/31 10:18:11;;;;;;;;;;;;;;;19.98;42.49;101643.74;1712136;82;20168;-74
2021/05/31 10:20:37;;;;;;;;;;;;;;;19.99;42.45;101639.34;1688205;83;20194;-74
2021/05/31 10:23:05;;;;;;;;;;;;;;;19.87;42.38;101639.81;1718243;83;20191;-74
2021/05/31 10:25:41;;;;;;;;;;;;;;;19.73;42.29;101639.06;1710047;83;20518;-74
2021/05/31 10:28:18;;;;;;;;;;;;;;;19.60;42.26;101635.17;1700717;83;20191;-74
2021/05/31 10:31:00;;;;;;;;;;;;;;;19.58;42.49;101626.51;1718750;83;20878;-74
2021/05/31 10:33:27;;;;;;;;;;;;;;;19.61;42.18;101635.12;1708998;82;20499;-74
2021/05/31 10:35:55;;;;;;;;;;;;;;;19.51;42.21;101631.13;1718363;83;20171;-74
2021/05/31 10:38:26;;;;;;;;;;;;;;;19.55;42.23;101624.85;1705364;82;20817;-74
2021/05/31 10:40:54;;;;;;;;;;;;;;;19.51;42.13;101625.88;1708163;83;20189;-74
2021/05/31 10:43:22;;;;;;;;;;;;;;;19.46;42.05;101626.47;1713508;83;20168;-74
2021/05/31 10:46:02;;;;;;;;;;;;;;;19.39;42.17;101621.90;1696996;83;20539;-74
2021/05/31 10:48:31;;;;;;;;;;;;;;;19.35;42.13;101621.61;1708329;82;20166;-75
2021/05/31 10:50:59;;;;;;;;;;;;;;;19.28;42.07;101615.33;1715116;83;20832;-75
2021/05/31 10:53:31;;;;;;;;;;;;;;;19.27;42.16;101613.16;1718424;83;20153;-75
2021/05/31 10:56:03;;;;;;;;;;;;;;;19.25;41.96;101616.30;1714914;81;20167;-75
2021/05/31 10:58:36;;;;;;;;;;;;;;;19.17;41.98;101615.75;1723075;81;20474;-75
2021/05/31 11:01:10;;;;;;;;;;;;;;;19.13;41.82;101612.83;1717872;81;20175;-75
2021/05/31 11:04:00;;;;;;;;;;;;;;;19.08;41.90;101611.69;1722028;81;20492;-75
2021/05/31 11:06:24;;;;;;;;;;;;;;;19.15;42.10;101601.38;1723871;81;20139;-74
2021/05/31 11:08:53;;;;;;;;;;;;;;;19.32;41.82;101606.44;1725144;81;20663;-74
2021/05/31 11:11:31;;;;;;;;;;;;;;;19.44;42.06;101600.29;1720225;81;20649;-74
2021/05/31 11:13:58;;;;;;;;;;;;;;;19.49;41.79;101598.81;1718374;81;20508;-75
2021/05/31 11:16:24;;;;;;;;;;;;;;;19.48;41.60;101594.48;1718913;82;20169;-75
2021/05/31 11:19:00;;;;;;;;;;;;;;;19.38;41.76;101593.96;1722580;83;20528;-75
2021/05/31 11:21:39;;;;;;;;;;;;;;;19.37;41.76;101594.88;1717264;81;20882;-75
2021/05/31 11:24:12;;;;;;;;;;;;;;;19.33;42.00;101589.80;1719784;81;20842;-75
2021/05/31 11:26:42;;;;;;;;;;;;;;;19.36;41.81;101586.60;1716238;81;20545;-75
2021/05/31 11:29:10;;;;;;;;;;;;;;;19.46;41.80;101586.66;1719430;81;20175;-75
2021/05/31 11:31:36;;;;;;;;;;;;;;;19.54;41.79;101587.72;1707348;81;20179;-75
2021/05/31 11:34:04;;;;;;;;;;;;;;;19.60;41.51;101580.93;1723738;81;20690;-75
2021/05/31 11:36:43;;;;;;;;;;;;;;;19.67;41.83;101578.47;1713798;82;20183;-75
2021/05/31 11:39:15;;;;;;;;;;;;;;;19.74;41.70;101583.89;1718527;81;20901;-75
2021/05/31 11:41:47;;;;;;;;;;;;;;;19.82;41.67;101574.38;1714797;81;20475;-75
2021/05/31 11:44:27;;;;;;;;;;;;;;;19.90;41.49;101576.23;1720849;81;20502;-75
2021/05/31 11:46:58;;;;;;;;;;;;;;;19.92;41.37;101575.72;1719565;83;20168;-75
2021/05/31 11:49:26;;;;;;;;;;;;;;;19.93;41.79;101572.64;1722392;82;20775;-75
2021/05/31 11:52:00;;;;;;;;;;;;;;;19.95;41.51;101572.98;1723355;83;20147;-75
2021/05/31 11:54:28;;;;;;;;;;;;;;;20.00;41.53;101570.17;1720511;81;20785;-75
2021/05/31 11:56:57;;;;;;;;;;;;;;;20.01;41.52;101569.25;1719106;83;20776;-75
2021/05/31 11:59:23;;;;;;;;;;;;;;;20.05;41.64;101573.01;1721717;83;20532;-75
2021/05/31 12:01:53;;;;;;;;;;;;;;;20.02;41.35;101566.56;1703148;83;20220;-76
2021/05/31 12:04:19;;;;;;;;;;;;;;;19.94;41.39;101563.39;1721500;83;20149;-76
2021/05/31 12:07:02;;;;;;;;;;;;;;;19.94;41.60;101565.16;1714264;83;20529;-75
2021/05/31 12:09:28;;;;;;;;;;;;;;;19.89;41.55;101559.23;1719917;83;20916;-77
2021/05/31 12:11:55;;;;;;;;;;;;;;;19.86;41.58;101556.73;1717330;81;20171;-76
2021/05/31 12:14:24;;;;;;;;;;;;;;;19.82;41.47;101554.23;1720738;81;20168;-78
2021/05/31 12:17:00;;;;;;;;;;;;;;;19.72;41.41;101550.28;1717891;82;20811;-78
2021/05/31 12:19:27;;;;;;;;;;;;;;;19.68;41.61;101551.77;1724370;82;20145;-77
2021/05/31 12:21:58;;;;;;;;;;;;;;;19.68;41.61;101547.84;1695139;82;20934;-76
2021/05/31 12:24:33;;;;;;;;;;;;;;;19.73;41.61;101542.81;1666682;84;20227;-76
2021/05/31 12:27:04;;;;;;;;;;;;;;;19.83;41.59;101537.56;1721151;83;20829;-76
2021/05/31 12:29:43;;;;;;;;;;;;;;;19.93;41.63;101531.95;1717660;83;20171;-76
2021/05/31 12:32:12;;;;;;;;;;;;;;;20.08;41.53;101533.95;1718025;83;20425;-76
2021/05/31 12:34:40;;;;;;;;;;;;;;;20.17;41.29;101530.95;1719035;82;20496;-76
2021/05/31 12:37:08;;;;;;;;;;;;;;;20.18;41.23;101529.19;1721860;82;20198;-76
2021/05/31 12:39:43;;;;;;;;;;;;;;;20.23;41.59;101528.53;1719357;82;20533;-75
2021/05/31 12:42:09;;;;;;;;;;;;;;;20.34;41.36;101523.66;1718681;83;20543;-75
2021/05/31 12:44:35;;;;;;;;;;;;;;;20.33;41.46;101527.20;1719380;83;20194;-76
2021/05/31 12:47:10;;;;;;;;;;;;;;;20.20;41.41;101524.27;1718149;83;20208;-76
2021/05/31 12:49:45;;;;;;;;;;;;;;;20.11;41.37;101528.58;1716315;83;20814;-75
2021/05/31 12:52:12;;;;;;;;;;;;;;;20.00;41.41;101519.83;1719031;81;20213;-75
2021/05/31 12:54:41;;;;;;;;;;;;;;;19.90;41.43;101521.57;1713238;83;20632;-77
2021/05/31 12:57:12;;;;;;;;;;;;;;;19.87;41.63;101514.67;1721157;83;20536;-77
2021/05/31 12:59:39;;;;;;;;;;;;;;;19.88;41.36;101516.38;1676973;85;20520;-77
2021/05/31 13:02:16;;;;;;;;;;;;;;;19.86;41.26;101517.36;1689140;83;20167;-77
2021/05/31 13:04:42;;;;;;;;;;;;;;;19.82;41.31;101508.75;1659931;85;20863;-77